logo
Games tagged Fishing
# Game Release date
Price
Score rank
(Userscore / Metascore)
Owners
Players
Playtime (Median)
Developer(s)
Publisher(s)
1 DAVE THE DIVER Jun 28, 2023 $19.99N/A (N/A/90%)2,000,000 .. 5,000,0006.41%02:16 (01:04)MINTROCKETMINTROCKET
2 Spiritfarer: Farewell Edition Aug 18, 2020 $29.99N/A (N/A/84%)1,000,000 .. 2,000,0001.15%02:02 (01:01)Thunder Lotus GamesThunder Lotus Games
3 Rainbow Billy: The Curse of the Leviathan Oct 5, 2021 $19.99N/A (N/A/81%)0 .. 20,0000%00:00 (00:00)ManaVoid EntertainmentSkybound Games
4 Potion Permit Sep 22, 2022 $19.99N/A (N/A/72%)200,000 .. 500,0000%00:00 (00:00)MassHive MediaPQube
5 Megaquarium Sep 13, 2018 $24.99N/A (N/A/69%)200,000 .. 500,0000%00:00 (00:00)Twice CircledTwice Circled
6 Tribe: Primitive Builder Oct 12, 2023 $19.99N/A (N/A/64%)20,000 .. 50,0000%00:00 (00:00)Space Boat Studios, Baked GamesPolyslash
7 Hokko Life Sep 27, 2022 $19.99N/A (N/A/54%)100,000 .. 200,0000%00:00 (00:00)Gizmo GardenTeam17
8 Russian Fishing 4 Nov 10, 2021 FreeN/A (N/A)5,000,000 .. 10,000,0000.42%15:23 (07:41)FishSoft LLCFishSoft LLC
9 Key To Heaven Apr 23, 2021 FreeN/A (N/A)50,000 .. 100,0000%00:00 (00:00)Far side of North StudioFar side of North Studio
10 PaperCraft Feb 25, 2021 N/AN/A (N/A)0 .. 20,0000%00:00 (00:00)Cinnamancer StudiosCinnamancer Studios
11 Survival Engine Feb 22, 2021 FreeN/A (N/A)0 .. 20,0000%00:00 (00:00)Indie MarcIndie Marc
12 Super Raft Boat Feb 21, 2021 FreeN/A (N/A)100,000 .. 200,0000%00:00 (00:00)Jason Gertner, Carson Kompon, Yukon Wainczak, Jennifer KindlShattered Journal Games
13 There Was A Dream Feb 11, 2021 N/AN/A (N/A)0 .. 20,0000%00:00 (00:00)Keydare ProjectKeydare Project
14 Farmer's Life: Prologue Jan 15, 2021 FreeN/A (N/A)0 .. 20,0000%00:00 (00:00)FreeMind S.A.FreeMind S.A., PlayWay S.A.
15 The Fishery Oct 14, 2020 N/AN/A (N/A)0 .. 20,0000%00:00 (00:00)Carey WhiteCarey White
16 Lost Remnant: The End Tides Aug 24, 2020 FreeN/A (N/A)20,000 .. 50,0000%00:00 (00:00)Jeff SproulJeff Sproul
17 街机捕鱼Arcade Fishing Aug 4, 2020 FreeN/A (N/A)50,000 .. 100,0000%00:00 (00:00)Arcade FishingArcade Fishing
18 Tunche: Arena Jan 18, 2019 N/AN/A (N/A)50,000 .. 100,0000%00:00 (00:00)LEAP Game StudiosHypeTrain Digital
19 Professional Fishing Nov 30, 2018 FreeN/A (N/A)500,000 .. 1,000,0000%00:00 (00:00)MasterCodeUltimate Games S.A.
20 Beneath The Surface Nov 13, 2018 FreeN/A (N/A)20,000 .. 50,0000%00:00 (00:00)carla51carla51
21 Farm Debt Repay Life Jul 13, 2024 $7.99N/A (N/A)0 .. 20,0000%00:00 (00:00)Rail1000Rail1000
22 fishTDX Jul 11, 2024 $4.99N/A (N/A)0 .. 20,0000%00:00 (00:00)progressprogress
23 MyLittlePool Jul 3, 2024 $5.99N/A (N/A)0 .. 20,0000%00:00 (00:00)SuperLokiSuperLoki
24 My Special Summer Vacation 2 Jun 27, 2024 $14.99N/A (N/A)0 .. 20,0000%00:00 (00:00)P.+Kagura Games
25 Times Tables Games Jun 26, 2024 $4.99N/A (N/A)0 .. 20,0000%00:00 (00:00)RusspuppyRusspuppy
26 Sundermead Jun 26, 2024 $14.99N/A (N/A)0 .. 20,0000%00:00 (00:00)JosephusJosephus
27 Everafter Falls Jun 20, 2024 $19.99N/A (N/A)0 .. 20,0000%00:00 (00:00)SquareHuskyAkupara Games
28 Machorium -Muscle Aquarium Simulator- May 28, 2024 $7.99N/A (N/A)0 .. 20,0000%00:00 (00:00)NEOLAVIindiegamesjapan
29 Infinite Mana May 28, 2024 $19.99N/A (N/A)0 .. 20,0000%00:00 (00:00)Wonderlust GamesWonderlust Games
30 FishOrChicken May 27, 2024 $2.99N/A (N/A)0 .. 20,0000%00:00 (00:00)XXLXXL
31 Ships At Sea May 23, 2024 $24.99N/A (N/A)100,000 .. 200,0000%00:00 (00:00)Misc GamesMisc Games
32 Aquarium Land May 20, 2024 $4.99N/A (N/A)0 .. 20,0000%00:00 (00:00)Homa GamesQubicGames
33 Seablip May 17, 2024 $14.99N/A (N/A)20,000 .. 50,00050%00:22 (00:11)Jardar SolliVibedy
34 impossible island May 13, 2024 $4.24N/A (N/A)0 .. 20,0000%00:00 (00:00)Studio Gathering StormStudio Gathering Storm
35 Cryptmaster May 9, 2024 $21.24N/A (N/A)50,000 .. 100,0000%00:00 (00:00)Paul Hart, Lee Williams, Akupara GamesAkupara Games
36 Brocula May 9, 2024 $19.99N/A (N/A)0 .. 20,0000%00:00 (00:00)Destroyer DoggoDestroyer Doggo
37 Project Real May 7, 2024 $5.99N/A (N/A)0 .. 20,0000%00:00 (00:00)HKGamesStudioGoGo Games Interactive
38 Farm Together 2 May 7, 2024 $19.99N/A (N/A)50,000 .. 100,00040%01:38 (01:38)Milkstone StudiosMilkstone Studios
39 Tempus Bound May 3, 2024 $4.31N/A (N/A)0 .. 20,0000%00:00 (00:00)Jasonsumm GamesJasonsumm Games
40 Pocket Idler: Fishing Pond May 1, 2024 $2.99N/A (N/A)0 .. 20,0000%00:00 (00:00)Inner Realm StudiosInner Realm Studios
41 Field of Growth: A Farmer's Odyssey Apr 25, 2024 $14.99N/A (N/A)0 .. 20,0000%00:00 (00:00)SCLITIFY ITSCLITIFY IT
42 Whisker Waters Apr 25, 2024 $11.99N/A (N/A)0 .. 20,0000%00:00 (00:00)Underbite GamesMerge Games, Maximum Entertainment
43 Survival Nation: Lost Horizon Apr 15, 2024 $11.99N/A (N/A)0 .. 20,0000%00:00 (00:00)Wenkly Studio Sp. z o.o.indie.io
44 Fruitio Apr 9, 2024 $0.99N/A (N/A)0 .. 20,0000%00:00 (00:00)https://www.superstargames.co.ukGolocobiz Limited
45 Aquarist Mar 29, 2024 $15.99N/A (N/A)0 .. 20,0000%00:00 (00:00)FreeMind S.A.PlayWay S.A., FreeMind S.A.
46 Adventure of Rikka - The Cursed Kingdom Mar 28, 2024 $9.99N/A (N/A)20,000 .. 50,0000%00:00 (00:00)Poorly Drawn SquidPoorly Drawn Squid
47 Angler Quest Mar 13, 2024 $9.99N/A (N/A)0 .. 20,0000%00:00 (00:00)BDTH StudiosBDTH Studios
48 Tales of Morrow Mar 8, 2024 $14.99N/A (N/A)0 .. 20,0000%00:00 (00:00)GameMechanicGameMechanic
49 Camp Canyonwood Feb 26, 2024 $9.99N/A (N/A)100,000 .. 200,0000%00:00 (00:00)Deli Interactive LLCGraffiti Games
50 Cozy Island Idle Feb 25, 2024 $2.09N/A (N/A)0 .. 20,0000%00:00 (00:00)Overaction Game Studio, ReiVaxOveraction Game Studio
51 LurkBait Twitch Fishing Feb 21, 2024 $7N/A (N/A)0 .. 20,0000%00:00 (00:00)BLAMCAM InteractiveBLAMCAM Interactive
52 Landelver Jan 6, 2024 $14.99N/A (N/A)0 .. 20,0000%00:00 (00:00)XINGXIAN NETXINGXIAN NET
53 Tales from The Dancing Moon Dec 12, 2023 $11.99N/A (N/A)0 .. 20,0000%00:00 (00:00)DjMonkeyDjMonkey
54 Disney Dreamlight Valley Dec 5, 2023 $39.99N/A (N/A)500,000 .. 1,000,00015%52:57 (71:15)GameloftGameloft
55 Coral Island Nov 14, 2023 $29.99N/A (N/A)500,000 .. 1,000,0000%00:00 (00:00)Stairway GamesHumble Games
56 Spellfield Nov 5, 2023 FreeN/A (N/A)0 .. 20,0000%00:00 (00:00)Zozizo StudioZozizo Studio
57 CatExpress Nov 5, 2023 $3.99N/A (N/A)0 .. 20,0000%00:00 (00:00)米萌工作室米萌工作室
58 Marine Glory Nov 3, 2023 $14.99N/A (N/A)0 .. 20,0000%00:00 (00:00)EnlargeramaEnlargerama
59 Slow living with Princess Oct 15, 2023 $19.99N/A (N/A)50,000 .. 100,0000%00:00 (00:00)KADOKAWA, TSUKURITE.0UP GAMES
60 Manny's Oct 12, 2023 $7.99N/A (N/A)20,000 .. 50,0000%00:00 (00:00)Bonemeal ProductionsBonemeal Productions
61 Harvest Moon: The Winds of Anthos Sep 27, 2023 $49.99N/A (N/A)0 .. 20,0000%00:00 (00:00)Appci Inc., Natsume Inc.Natsume Inc.
62 Mineko's Night Market Sep 26, 2023 $19.99N/A (N/A)0 .. 20,0000%00:00 (00:00)Meowza GamesHumble Games
63 Russian Village Simulator Sep 25, 2023 $6.74N/A (N/A)20,000 .. 50,0000%00:00 (00:00)VD Games, PropilGamesVD Games
64 Cozy Fishing Sep 17, 2023 $1.99N/A (N/A)0 .. 20,0000%00:00 (00:00)MyHand StudioMyHand Studio
65 BeatBeat Sep 12, 2023 $14.99N/A (N/A)0 .. 20,0000%00:00 (00:00)Janarik Games LLCJanarik Games LLC
66 Chillquarium Sep 6, 2023 $5.99N/A (N/A)200,000 .. 500,0007.14%00:01 (00:00)Ben ReberBen Reber
67 Rune Factory 3 Special Sep 5, 2023 $39.99N/A (N/A)0 .. 20,0000%00:00 (00:00)Marvelous Inc.XSEED Games, Marvelous USA, Inc., Marvelous
68 Shalnor Legends 2: Trials of Thunder Sep 5, 2023 $9.99N/A (N/A)0 .. 20,0000%00:00 (00:00)Johnny OstadJohnny Ostad
69 Dream Fire Aug 31, 2023 $9.99N/A (N/A)20,000 .. 50,0000%00:00 (00:00)World Games DevelopmentWorld Games Development
70 Piscirazzi: Fish Photo Shooter Jul 17, 2023 $4.99N/A (N/A)50,000 .. 100,0000%00:00 (00:00)Ben FlavellBen Flavell
71 Farmer Simulator Jul 15, 2023 $8.99N/A (N/A)0 .. 20,0000%00:00 (00:00)Imperian Online ChebImperian Online Cheb
72 恶魔契约者 Jul 15, 2023 $1.19N/A (N/A)0 .. 20,0000%00:00 (00:00)16air16air
73 Catch & Cook: Fishing Adventure Jul 14, 2023 $9.99N/A (N/A)0 .. 20,0000%00:00 (00:00)Campfire StudioCampfire Studio
74 Blue Oak Bridge Jul 6, 2023 $24.99N/A (N/A)0 .. 20,0000%00:00 (00:00)Lemon Seed StudioLemon Seed Studio
75 Dating Simulator Jun 22, 2023 $1.99N/A (N/A)0 .. 20,0000%00:00 (00:00)piratecat gamesCheesecake Dev
76 Blind Fishes Jun 10, 2023 $1.99N/A (N/A)0 .. 20,0000%00:00 (00:00)NoiArtsNoiArts
77 Fallen Kingdom May 31, 2023 $9.99N/A (N/A)0 .. 20,0000%00:00 (00:00)Gurup StudiosGurup Studios
78 Everdream Valley May 30, 2023 $24.99N/A (N/A)20,000 .. 50,0000%00:00 (00:00)MooneatersUntold Tales, VARSAV Game Studios
79 GateTail May 26, 2023 $4.99N/A (N/A)0 .. 20,0000%00:00 (00:00)JofiniJofini
80 Love on Leave May 17, 2023 $24.99N/A (N/A)0 .. 20,0000%00:00 (00:00)qureate, Orgesta Inc.qureate
81 Tropical Resort Story Apr 9, 2023 $8.99N/A (N/A)0 .. 20,0000%00:00 (00:00)Kairosoft Co.,LtdKairosoft Co.,Ltd
82 Little Crab Fisher Mar 31, 2023 FreeN/A (N/A)0 .. 20,0000%00:00 (00:00)Douglass InteractiveDouglass Interactive
83 DREDGE Mar 30, 2023 $24.99N/A (N/A)1,000,000 .. 2,000,0001.79%00:23 (00:11)Black Salt GamesTeam17
84 降妖神兵 Mar 30, 2023 $2.99N/A (N/A)0 .. 20,0000%00:00 (00:00)易远游戏易远游戏
85 Ovivim pra Sua Stream Mar 12, 2023 $9.99N/A (N/A)0 .. 20,0000%00:00 (00:00)Virgula Leal, Amon RibeiroJogo Joia
86 Phantom Island Mar 10, 2023 $7.99N/A (N/A)0 .. 20,0000%00:00 (00:00)DrTheBugDrTheBug
87 Sun Haven Mar 10, 2023 $24.99N/A (N/A)500,000 .. 1,000,0000%00:00 (00:00)Pixel Sprout StudiosPixel Sprout Studios
88 Saving Mei Mar 5, 2023 $3.99N/A (N/A)0 .. 20,0000%00:00 (00:00)SavingMSavingM
89 Evolution Tale Mar 2, 2023 $3.99N/A (N/A)0 .. 20,0000%00:00 (00:00)X Woomy Games, Abel Reyes, Isaac RamírezAbel Reyes, Isaac Ramírez
90 Sky traveler Feb 28, 2023 $10.99N/A (N/A)0 .. 20,0000%00:00 (00:00)DFRGAMESDFRGAMES
91 流浪荒岛 Feb 28, 2023 FreeN/A (N/A)0 .. 20,0000%00:00 (00:00)lhtgameslhtgames
92 Tropicalia Feb 28, 2023 $14.99N/A (N/A)0 .. 20,0000%00:00 (00:00)Paulo Henrique FranqueiraPaulo Henrique Franqueira
93 The Grindstone Feb 25, 2023 $19.99N/A (N/A)20,000 .. 50,0000%00:00 (00:00)Wolfs Moon StudiosWolfs Moon Studios
94 Ephesus Feb 17, 2023 $4.99N/A (N/A)0 .. 20,0000%00:00 (00:00)The Pack StudiosThe Pack Studios
95 IBIS AM Feb 17, 2023 $1.99N/A (N/A)0 .. 20,0000%00:00 (00:00)The Water MuseumThe Water Museum
96 Blue Fish Yokohama Feb 17, 2023 $5.99N/A (N/A)0 .. 20,0000%00:00 (00:00)Slippy Fish StudioSlippy Fish Studio
97 Wild West Dynasty Feb 16, 2023 $16.19N/A (N/A)50,000 .. 100,0000%00:00 (00:00)Moon Punch StudioToplitz Productions
98 Darwin's Aquarium Jan 10, 2023 $14.99N/A (N/A)0 .. 20,0000%00:00 (00:00)Joachim Sester, Niels ten DijkeDarwin's Studio
99 Aquaculture Land: Fish Farming Simulation Dec 22, 2022 $4.99N/A (N/A)0 .. 20,0000%00:00 (00:00)Maulidan GamesMaulidan Games, Maple Whispering Limited
100 Crazy World VR Dec 21, 2022 $14.99N/A (N/A)0 .. 20,0000%00:00 (00:00)Pixelity Inc.Pixelity Inc.
101 DORAEMON STORY OF SEASONS: Friends of the Great Kingdom Nov 1, 2022 $49.99N/A (N/A)0 .. 20,0000%00:00 (00:00)Marvelous Inc.Bandai Namco Entertainment
102 DREAMWILD Oct 31, 2022 $7.99N/A (N/A)0 .. 20,0000%00:00 (00:00)Fading ClubFading Club
103 Slot Shots Pinball Collection Oct 18, 2022 $6.99N/A (N/A)0 .. 20,0000%00:00 (00:00)Pinblend StudiosPinblend Studios
104 Island Berry Oct 14, 2022 $4.99N/A (N/A)0 .. 20,0000%00:00 (00:00)BooleanBoolean
105 Huge Jaws Oct 11, 2022 $2.49N/A (N/A)0 .. 20,0000%00:00 (00:00)Piece Of VoxelPiece Of Voxel
106 Isla Sinaloa Oct 10, 2022 $19.99N/A (N/A)0 .. 20,0000%00:00 (00:00)EnsenaSoftEnsenaSoft
107 Eat Fish, Get Achievements Oct 9, 2022 $2.99N/A (N/A)0 .. 20,0000%00:00 (00:00)DaSticksDaSticks
108 ValiDate: Struggling Singles in your Area Sep 28, 2022 $14.99N/A (N/A)0 .. 20,0000%00:00 (00:00)Veritable Joy StudiosVeritable Joy Studios
109 Salt 2: Shores of Gold Sep 20, 2022 $19.99N/A (N/A)50,000 .. 100,0000%00:00 (00:00)Lavaboots StudiosLavaboots Studios
110 100 hidden turtles Sep 3, 2022 $2.99N/A (N/A)20,000 .. 50,0000%00:00 (00:00)Anatoliy LoginovskikhAnatoliy Loginovskikh
111 Moon Whalers Sep 2, 2022 $4.99N/A (N/A)0 .. 20,0000%00:00 (00:00)Yusuke "JuicyChicken" HasegawaJuicyChickenGames
112 Mini Star Fishing Sep 1, 2022 $9.99N/A (N/A)0 .. 20,0000%00:00 (00:00)MACKINN7MACKINN7
113 Call of the Wild: The Angler Aug 31, 2022 $29.99N/A (N/A)200,000 .. 500,0009.09%04:56 (02:28)Expansive WorldsExpansive Worlds
114 Crisp's Charging Challenge Aug 29, 2022 $4.99N/A (N/A)20,000 .. 50,0000%00:00 (00:00)Lads Game StudioLads Game Studio
115 Fishing Game Aug 25, 2022 FreeN/A (N/A)0 .. 20,0000%00:00 (00:00)louis morelOakrot Games
116 Land of Zympaia The New Light Aug 24, 2022 $15.99N/A (N/A)0 .. 20,0000%00:00 (00:00)InjectWare™InjectWare™
117 Lighthouse Keeper Aug 23, 2022 $11.99N/A (N/A)20,000 .. 50,0000%00:00 (00:00)Stratera GamesStratera Games
118 Ultimate Fishing Simulator 2 Aug 22, 2022 $19.99N/A (N/A)50,000 .. 100,0000%00:00 (00:00)Silent Bear Studio, SHINING GAMESUltimate Games S.A.
119 Island Idle RPG Aug 19, 2022 $2.99N/A (N/A)0 .. 20,0000%00:00 (00:00)Overaction Game StudioOveraction Game Studio
120 Catizens Aug 17, 2022 $14.21N/A (N/A)0 .. 20,0000%00:00 (00:00)badopticsgamesHeroCraft PC
121 Midnight Zone Aug 3, 2022 $3.99N/A (N/A)0 .. 20,0000%00:00 (00:00)Package Games StudioPackage Games Studio
122 Retreat To Enen Aug 1, 2022 $24.99N/A (N/A)20,000 .. 50,0000%00:00 (00:00)Head Westindie.io
123 Harpoon Jul 23, 2022 $0.71N/A (N/A)0 .. 20,0000%00:00 (00:00)Laush Dmitriy SergeevichLaush Studio
124 Cheaphaven Jul 22, 2022 $7.99N/A (N/A)0 .. 20,0000%00:00 (00:00)Combo RoutineCombo Routine
125 The Sunny Life Jul 21, 2022 $9.99N/A (N/A)0 .. 20,0000%00:00 (00:00)Sino4 GamesSino4 Games
126 Penguins Can Fly Jul 19, 2022 $2.99N/A (N/A)0 .. 20,0000%00:00 (00:00)Joseph CookJoseph Cook
127 Dinkum Jul 14, 2022 $19.99N/A (N/A)500,000 .. 1,000,0000%00:00 (00:00)James BendonJames Bendon
128 Rune Factory 5 Jul 13, 2022 $39.99N/A (N/A)50,000 .. 100,0000%00:00 (00:00)Marvelous Inc.XSEED Games, Marvelous USA, Inc., Marvelous
129 25°N 71°W Jun 20, 2022 $9.99N/A (N/A)0 .. 20,0000%00:00 (00:00)SE {} KSSE {} KS
130 Fishing Paradiso Jun 1, 2022 $14.99N/A (N/A)0 .. 20,0000%00:00 (00:00)OdencatOdencat
131 Kapital13 May 26, 2022 $8.99N/A (N/A)0 .. 20,0000%00:00 (00:00)Ethernal StudioEthernal Studio
132 Pirate fishing May 16, 2022 $1.09N/A (N/A)0 .. 20,0000%00:00 (00:00)Neki4 ElectronicsNeki4 Electronics
133 Harvest Days: My Dream Farm May 12, 2022 $7.49N/A (N/A)0 .. 20,0000%00:00 (00:00)Family DevsFamily Devs, Toplitz Productions
134 Fantasy Fishing Town May 9, 2022 $6.99N/A (N/A)0 .. 20,0000%00:00 (00:00)RainbowStudioRainbowStudio
135 The Farmer's Story of Slow Life May 7, 2022 $24.99N/A (N/A)0 .. 20,0000%00:00 (00:00)OikariBunchoOikariBuncho
136 Fishing Vacation Apr 20, 2022 $1.99N/A (N/A)0 .. 20,0000%00:00 (00:00)Teebowah Games, LameboySPTeebowah Games
137 Hot Spring Hero Apr 8, 2022 $18.99N/A (N/A)20,000 .. 50,0000%00:00 (00:00)EXAMGAMESOTAKU Plan
138 Picontier / ピコンティア Mar 31, 2022 $24.99N/A (N/A)0 .. 20,0000%00:00 (00:00)SKIPMORE, Kan.KikuchiFlyhigh Works
139 SUMMER VACATION Mar 23, 2022 N/AN/A (N/A)0 .. 20,0000%00:00 (00:00)ALPHA-NEXTALPHA-NEXT
140 Village Monsters Mar 22, 2022 $14.99N/A (N/A)0 .. 20,0000%00:00 (00:00)Josh BossieJosh Bossie
141 No Place Like Home Mar 17, 2022 $19.99N/A (N/A)100,000 .. 200,0000%00:00 (00:00)Chicken LauncherAwaken Realms
142 Epics of Distant Realm: Holy Return Mar 16, 2022 $0.49N/A (N/A)50,000 .. 100,0000%00:00 (00:00)Emir Suleiman, Tayfun TunaChronoVision
143 Tabbellarius Mar 8, 2022 $4.99N/A (N/A)20,000 .. 50,0000%00:00 (00:00)Martin BauerSquareware
144 Pengu Never Left Feb 20, 2022 $1.99N/A (N/A)0 .. 20,0000%00:00 (00:00)SchweggSchwegg
145 Isle of Jura Feb 11, 2022 $4.99N/A (N/A)0 .. 20,0000%00:00 (00:00)EM GamesEM Games, Sedoc LLC
146 Furries & Scalies & Scarecrows OH MY! Jan 28, 2022 $9.99N/A (N/A)0 .. 20,0000%00:00 (00:00)Stegalosaurus Game DevelopmentStegalosaurus Game Development
147 Fishing Adventure VR Jan 7, 2022 $1.19N/A (N/A)0 .. 20,0000%00:00 (00:00)Ultimate VRSIG Publishing
148 Edengrall Jan 7, 2022 $14.99N/A (N/A)0 .. 20,0000%00:00 (00:00)Fables of LaetusFables of Laetus
149 Mysteries Under Lake Ophelia Dec 22, 2021 $4.99N/A (N/A)0 .. 20,0000%00:00 (00:00)Bryce BucherBryce Bucher
150 Rune Factory 4 Special Dec 7, 2021 $29.99N/A (N/A)100,000 .. 200,0000%00:00 (00:00)Marvelous Inc.XSEED Games, Marvelous USA, Inc., Marvelous
151 Fishing at Lotus Lakes Nov 26, 2021 $1.87N/A (N/A)0 .. 20,0000%00:00 (00:00)William at OxfordWilliam at Oxford
152 Cat Fish Island Nov 23, 2021 $4.99N/A (N/A)0 .. 20,0000%00:00 (00:00)RedZyrroRedZyrro
153 Hero of the Kingdom: The Lost Tales 2 Nov 19, 2021 $6.99N/A (N/A)50,000 .. 100,0000%00:00 (00:00)Lonely TroopsLonely Troops
154 Melvor Idle Nov 18, 2021 $9.99N/A (N/A)500,000 .. 1,000,0007.14%58:59 (58:59)Games by MalcsJagex Ltd
155 SUPER ICK Nov 16, 2021 $2.99N/A (N/A)20,000 .. 50,0000%00:00 (00:00)Ethan GoldreyerEthan Goldreyer
156 DYSMANTLE Nov 16, 2021 $19.99N/A (N/A)500,000 .. 1,000,0000%00:00 (00:00)10tons Ltd10tons Ltd
157 Star Fisher Nov 10, 2021 $2.99N/A (N/A)0 .. 20,0000%00:00 (00:00)Pulse Check GamesPulse Check Games
158 A Fishy RPG Nov 5, 2021 $0.49N/A (N/A)0 .. 20,0000%00:00 (00:00)LGVLGV
159 Forest Farm Nov 3, 2021 $14.99N/A (N/A)0 .. 20,0000%00:00 (00:00)Nic SchubertTonic Games Australia
160 Dragon Kingdom Oct 29, 2021 $4.99N/A (N/A)0 .. 20,0000%00:00 (00:00)Dark Royalty StudiosDark Royalty Studios
161 Bassmaster Fishing Oct 28, 2021 $24.99N/A (N/A)0 .. 20,0000%00:00 (00:00)Dovetail GamesDovetail Games - Fishing
162 Voxel Farm Island Oct 28, 2021 $7.99N/A (N/A)0 .. 20,0000%00:00 (00:00)LQ-GAMELQ-GAME
163 Moonglow Bay Oct 26, 2021 $6.24N/A (N/A)20,000 .. 50,0000%00:00 (00:00)BunnyhugCoatsink
164 Shoal Oct 24, 2021 $6.99N/A (N/A)0 .. 20,0000%00:00 (00:00)VidroidVidroid
165 Chef's Tail Oct 22, 2021 $8.99N/A (N/A)0 .. 20,0000%00:00 (00:00)Art Games Studio S.A.Art Games Studio S.A.
166 Touhou Adventure Oct 20, 2021 $4.99N/A (N/A)0 .. 20,0000%00:00 (00:00)Crimson Games DevCrimson Games Dev
167 Sailwind Oct 18, 2021 $19.99N/A (N/A)50,000 .. 100,000100%02:35 (02:35)Raw Lion WorkshopRaw Lion Workshop
168 Nira Oct 14, 2021 $1.99N/A (N/A)20,000 .. 50,0000%00:00 (00:00)Baseline GamesGraffiti Games
169 Carp Fishing Simulator Oct 14, 2021 $18.99N/A (N/A)0 .. 20,0000%00:00 (00:00)Dangerous Derk InteractiveDangerous Derk Interactive
170 GoldfishFlap Oct 12, 2021 FreeN/A (N/A)0 .. 20,0000%00:00 (00:00)Beshu, GoldfishFlapBeshu
171 Pearls of the Oceans Oct 4, 2021 $0.99N/A (N/A)0 .. 20,0000%00:00 (00:00)Group Launch Inc.Booster PlayGroup Launch Inc.Booster Play
172 Once Upon a Time in the Colony Oct 2, 2021 $4.99N/A (N/A)0 .. 20,0000%00:00 (00:00)Song Qiang ShengSong Qiang Sheng
173 Surviving West Sep 24, 2021 $9.99N/A (N/A)0 .. 20,0000%00:00 (00:00)Nemo StudiosNemo Studios
174 I Am Fish Sep 16, 2021 $4.99N/A (N/A)100,000 .. 200,0000%00:00 (00:00)Bossa StudiosCurve Games
175 Totemlands Sep 3, 2021 $1.49N/A (N/A)0 .. 20,0000%00:00 (00:00)HobofellerHobofeller
176 Monster Harvest Aug 31, 2021 $2.54N/A (N/A)20,000 .. 50,0000%00:00 (00:00)Maple Powered GamesMerge Games
177 Fifefer Island - Terrena's Adventure Aug 16, 2021 $9.99N/A (N/A)50,000 .. 100,0000%00:00 (00:00)Power Parametrics LLCPower Parametrics LLC
178 Here Comes Niko! Aug 3, 2021 $24.99N/A (N/A)100,000 .. 200,0000%00:00 (00:00)Frog VibesGears for Breakfast
179 Seafarers Aug 1, 2021 $4.99N/A (N/A)0 .. 20,0000%00:00 (00:00)Egghead Interactive LLC.Egghead Interactive LLC.
180 Salt and Sails Jul 1, 2021 $0.99N/A (N/A)0 .. 20,0000%00:00 (00:00)DiaMMaxPiece Of Voxel
181 Aeris&Zack Jun 18, 2021 $3.99N/A (N/A)0 .. 20,0000%00:00 (00:00)CWGameStudioCWGameStudio
182 Frosty Jumper Jun 17, 2021 $0.99N/A (N/A)0 .. 20,0000%00:00 (00:00)Anderson do ValeAnderson do Vale
183 Luna's Fishing Garden Jun 16, 2021 $7.99N/A (N/A)50,000 .. 100,0000%00:00 (00:00)Coldwild Games, illufinchColdwild Games
184 Clawfish Jun 11, 2021 $2.99N/A (N/A)0 .. 20,0000%00:00 (00:00)David Czarnowskidavidczar
185 Little Big Guy Jun 10, 2021 $2.99N/A (N/A)20,000 .. 50,0000%00:00 (00:00)Albatross IdeaAlbatross Idea
186 The Chronicler Jun 2, 2021 $6.99N/A (N/A)0 .. 20,0000%00:00 (00:00)O.N. Arts and GamesO.N. Arts and Games
187 Fish Person Shooter May 20, 2021 $12.99N/A (N/A)0 .. 20,0000%00:00 (00:00)8AH8AH
188 Floogen May 5, 2021 $0.99N/A (N/A)0 .. 20,0000%00:00 (00:00)Ian LevesqueIan Levesque
189 CryoFall Apr 29, 2021 $19.99N/A (N/A)200,000 .. 500,0000%00:00 (00:00)AtomicTorch StudioDaedalic Entertainment
190 Fisherman Classic Apr 23, 2021 $0.49N/A (N/A)0 .. 20,0000%00:00 (00:00)LGVLGV
191 Fish Feast Apr 9, 2021 $4.99N/A (N/A)50,000 .. 100,0000%00:00 (00:00)Aigi StudiosAigi Studios
192 Creatura Mar 31, 2021 $14.99N/A (N/A)0 .. 20,0000%00:00 (00:00)Koksny.comFreeMind S.A., Koksny.com
193 Be Hero Mar 30, 2021 $12.99N/A (N/A)0 .. 20,0000%00:00 (00:00)Mirabolis StudiosMirabolis Studios
194 F.I.S.H. Mar 25, 2021 $7.99N/A (N/A)0 .. 20,0000%00:00 (00:00)Tim KashaniFireapples
195 100 hidden mushrooms Mar 23, 2021 $0.99N/A (N/A)50,000 .. 100,0000%00:00 (00:00)Anatoliy Loginovskikh, Catherine SvyatayaAnatoliy Loginovskikh
196 Ecosystem Mar 16, 2021 $19.99N/A (N/A)20,000 .. 50,0000%00:00 (00:00)Tom JohnsonSlug Disco
197 Marooned May 8, 2021 $2.99N/A (N/A)0 .. 20,0000%00:00 (00:00)Mika PiMika Pi
198 Cold Breath Feb 24, 2021 $0.59N/A (N/A)0 .. 20,0000%00:00 (00:00)celikgamescelikgames
199 Rogue Heroes: Ruins of Tasos Feb 23, 2021 $19.99N/A (N/A)200,000 .. 500,0000%00:00 (00:00)Heliocentric StudiosTeam17 Digital
200 Learning Factory Feb 18, 2021 $9.29N/A (N/A)50,000 .. 100,0000%00:00 (00:00)Luden.ioLuden.io
201 Island Raft Survival 2021: Ocean Escape Feb 12, 2021 $2.99N/A (N/A)20,000 .. 50,0000%00:00 (00:00)Francolins studioFive River Solutions
202 Worldwide Sports Fishing Feb 3, 2021 $9.99N/A (N/A)0 .. 20,0000%00:00 (00:00)Lotte|EoDAgger Interactive
203 Wild Workshop Jan 28, 2021 N/AN/A (N/A)50,000 .. 100,0000%00:00 (00:00)PRIMATE GAMES CO., LTD.PRIMATE GAMES CO., LTD.
204 Phoenotopia: Awakening Jan 21, 2021 $19.99N/A (N/A)200,000 .. 500,0000%00:00 (00:00)Cape CosmicCape Cosmic, Flyhigh Works
205 Fun Christmas Santa VR Dec 23, 2020 $9.99N/A (N/A)0 .. 20,0000%00:00 (00:00)VR-EXODUSVR-EXODUS
206 Fishticuffs Dec 21, 2020 $4.99N/A (N/A)20,000 .. 50,0000%00:00 (00:00)YokcosYokcos
207 SantaCraft Dec 15, 2020 $9.99N/A (N/A)0 .. 20,0000%00:00 (00:00)Milkbag GamesMilkbag Games
208 Faraway Islands Dec 13, 2020 $3.99N/A (N/A)20,000 .. 50,0000%00:00 (00:00)bocobocbocoboc
209 Anime Play Life: Unlimited Dec 4, 2020 $17.99N/A (N/A)20,000 .. 50,0000%00:00 (00:00)Redicion StudioRedicion Studio
210 Fish and Groove Nov 10, 2020 $0.99N/A (N/A)0 .. 20,0000%00:00 (00:00)IndigoWareIndigoWare
211 Pocket Penguin DX ( ポケットペンギン): A Retro Style Adventure Nov 15, 2020 $6.99N/A (N/A)0 .. 20,0000%00:00 (00:00)Dog Biscuit StudiosDog Biscuit Studios
212 Fishing Sim World: Bass Pro Shops Edition Nov 3, 2020 $39.99N/A (N/A)0 .. 20,0000%00:00 (00:00)Dovetail GamesPlanet Entertainment
213 Good puzzle Oct 23, 2020 $0.71N/A (N/A)0 .. 20,0000%00:00 (00:00)Laush Dmitriy SergeevichLaush Studio
214 Fish Glutton Oct 22, 2020 $2.74N/A (N/A)20,000 .. 50,0000%00:00 (00:00)PointBlassPointBlass
215 Fishing: North Atlantic - Enhanced Edition Oct 16, 2020 $34.99N/A (N/A)200,000 .. 500,0000%00:00 (00:00)Misc GamesMisc Games
216 Taiga Oct 8, 2020 $1.99N/A (N/A)0 .. 20,0000%00:00 (00:00)Limitless ImaginationLimitless Imagination
217 Eat or DIE! Oct 6, 2020 $4.99N/A (N/A)0 .. 20,0000%00:00 (00:00)The Big StudioThe Big Studio
218 9th Dawn III Oct 5, 2020 $15.99N/A (N/A)20,000 .. 50,0000%00:00 (00:00)ValorwareValorware
219 Survive or Thrive Sep 7, 2020 $1.99N/A (N/A)0 .. 20,0000%00:00 (00:00)Randumb StudiosRandumb Studios
220 Le Voyage de Toki Aug 31, 2020 $5.99N/A (N/A)0 .. 20,0000%00:00 (00:00)AnAppleChurrosAnAppleChurros
221 Pixel Ninja Aug 10, 2020 $7.99N/A (N/A)0 .. 20,0000%00:00 (00:00)Nacks SoftNacks Soft
222 Littlewood Aug 4, 2020 $14.99N/A (N/A)200,000 .. 500,0000%00:00 (00:00)Sean YoungSmashGames
223 Verdant Village Aug 4, 2020 $14.99N/A (N/A)0 .. 20,0000%00:00 (00:00)Exodus SoftwareExodus Software
224 Arctic Anxiety Jul 2, 2020 $2.99N/A (N/A)20,000 .. 50,0000%00:00 (00:00)Arctic StudioArctic Studio
225 Freediving Hunter Spearfishing the World Jul 1, 2020 $19.99N/A (N/A)0 .. 20,0000%00:00 (00:00)Strongbox3dStrongbox3d
226 The Catch: Carp & Coarse Fishing Jun 30, 2020 $14.99N/A (N/A)0 .. 20,0000%00:00 (00:00)Dovetail GamesDovetail Games - Fishing
227 Yuri Ogibalov's Bizarre Adventure Jun 25, 2020 $2.99N/A (N/A)50,000 .. 100,0000%00:00 (00:00)OKONNAYA RAMAOKONNAYA RAMA
228 Shattered Hourglass Apr 29, 2020 $4.99N/A (N/A)20,000 .. 50,0000%00:00 (00:00)sawworm Gamessawworm Games
229 Intergalactic Fishing Apr 21, 2020 $14.99N/A (N/A)20,000 .. 50,0000%00:00 (00:00)Boat Anchor GamesBoat Anchor Games
230 Alchemy Story Apr 15, 2020 $19.99N/A (N/A)0 .. 20,0000%00:00 (00:00)Cozy Bee GamesCozy Bee Games
231 Deadliest Catch: The Game Apr 14, 2020 $19.99N/A (N/A)100,000 .. 200,0000%00:00 (00:00)4FishingUltimate Games S.A.
232 Sea Fishing Simulator Feb 20, 2020 $9.99N/A (N/A)0 .. 20,0000%00:00 (00:00)Dangerous Derk InteractiveDangerous Derk Interactive
233 Fish Simulator: Aquarium Manager Feb 10, 2020 $9.99N/A (N/A)0 .. 20,0000%00:00 (00:00)DuoBonzaDuoBonza
234 visser Oct 9, 2018 $2.99N/A (N/A)0 .. 20,0000%00:00 (00:00)Sokpop CollectiveSokpop Collective
235 fishy Jan 17, 2020 $2.99N/A (N/A)20,000 .. 50,0000%00:00 (00:00)Sokpop CollectiveSokpop Collective
236 Sea King Dec 24, 2019 $4.99N/A (N/A)0 .. 20,0000%00:00 (00:00)Interactive StoneInteractive Stone
237 Ultimate Fishing Simulator VR Nov 15, 2019 N/AN/A (N/A)20,000 .. 50,0000%00:00 (00:00)Bit Golem, Pancake Games, 3T LabsUltimate Games S.A.
238 Fishing Adventure Nov 1, 2019 $4.99N/A (N/A)100,000 .. 200,0000%00:00 (00:00)MasterCodeUltimate Games S.A.
239 Angler's Life Oct 31, 2019 $14.99N/A (N/A)0 .. 20,0000%00:00 (00:00)reCore GamesreCore Games
240 Fisher Online Oct 27, 2019 $13.99N/A (N/A)200,000 .. 500,00033.33%02:08 (01:04)R-AgeR-Age
241 Lakeview Valley Oct 22, 2019 $14.99N/A (N/A)50,000 .. 100,0000%00:00 (00:00)Roope TamminenRoope Tamminen
242 The Fisherman - Fishing Planet Oct 17, 2019 $29.99N/A (N/A)50,000 .. 100,0000%00:00 (00:00)Fishing Planet LLCNacon
243 Reel Fishing: Road Trip Adventure Sep 17, 2019 $29.99N/A (N/A)20,000 .. 50,0000%00:00 (00:00)Tachyon Inc., Natsume Inc.Natsume Inc.
244 River Legends: A Fly Fishing Adventure Aug 26, 2019 $3.99N/A (N/A)0 .. 20,0000%00:00 (00:00)Dantat StudioDantat Studio
245 Truefish Jul 10, 2019 $6.99N/A (N/A)0 .. 20,0000%00:00 (00:00)TiProg-
246 Fishing on the Fly Jun 3, 2019 $19.99N/A (N/A)0 .. 20,0000%00:00 (00:00)Numicus StudiosNumicus LLC
247 Drop May 9, 2019 $0.99N/A (N/A)50,000 .. 100,0000%00:00 (00:00)uorauora
248 Shoppe Keep 2 Apr 25, 2019 $9.99N/A (N/A)200,000 .. 500,0000%00:00 (00:00)Strange FireExcalibur Publishing
249 Islet Online Feb 12, 2019 FreeN/A (N/A)50,000 .. 100,0000%00:00 (00:00)Morenori SoftMorenori Soft
250 Puzzles for smart: Underwater Kingdom Dec 1, 2018 $0.67N/A (N/A)0 .. 20,0000%00:00 (00:00)Laush Dmitriy SergeevichLaush Studio
251 PRO FISHING SIMULATOR Nov 29, 2018 $9.99N/A (N/A)20,000 .. 50,0000%00:00 (00:00)Sanuk GamesNacon
252 Intelligence: Underwater Kingdom Oct 24, 2018 $0.67N/A (N/A)0 .. 20,0000%00:00 (00:00)Laush Dmitriy SergeevichLaush Studio
253 Fishing Sim World: Pro Tour Sep 18, 2018 $19.99N/A (N/A)50,000 .. 100,0000%00:00 (00:00)Dovetail GamesDovetail Games
Overview

Fishing

Games with this tag: 253
Average userscore: N/A%
Average metascore: 73.43%
Average playtime: 11:58
Total copies owned: 25,206,000
Average price: $11.45
Help

Owners: Estimated number of people owning this game. The number might be way too small for new releases and sometimes way too big for games that had free weekend event recently. Read more on About page.

Playtime: Average hours played in total per person that have actually launched this game since March 2009. This time is calculated for the whole lifetime, not for the particular year.

Average score: Average users and metacritic score for all games with this score assigned.

Average playtime: Average lifetime playtime for all games where this data is available.

Games in this genre: Self-explaining - number of games with this tag. Only inculdes games with sales data available.

Total copies owned: Refers to total copies of games with this tag acquired by users for the lifetime. Includes copies sold, downloaded for free and given out.

This number might be too small for recently released games or too big for games that had a free weekend in the last couple of months.

Graphs

Login required.

Please register or log in to see this information.

Login required.

Please register or log in to see this information.